createdAt,value
2018-06-24T00:00:14.188Z,12.71
2018-06-24T00:01:14.165Z,12.65
2018-06-24T00:02:14.161Z,12.70
2018-06-24T00:03:14.128Z,12.72
2018-06-24T00:04:14.109Z,12.70
2018-06-24T00:05:14.093Z,12.68
2018-06-24T00:06:14.084Z,12.67
2018-06-24T00:07:14.072Z,12.71
2018-06-24T00:08:14.048Z,12.68
2018-06-24T00:09:14.027Z,12.71
2018-06-24T00:10:14.008Z,12.65
2018-06-24T00:11:13.985Z,12.75
2018-06-24T00:12:13.985Z,12.74
2018-06-24T00:13:13.955Z,12.78
2018-06-24T00:14:14.016Z,12.82
2018-06-24T00:15:13.917Z,12.79
2018-06-24T00:16:13.898Z,12.79
2018-06-24T00:17:13.912Z,12.74
2018-06-24T00:18:13.864Z,12.82
2018-06-24T00:19:13.848Z,12.77
2018-06-24T00:20:13.828Z,12.79
2018-06-24T00:21:13.808Z,12.79
2018-06-24T00:22:13.803Z,12.79
2018-06-24T00:23:13.775Z,12.79
2018-06-24T00:24:13.756Z,12.70
2018-06-24T00:25:13.741Z,12.68
2018-06-24T00:26:13.722Z,12.72
2018-06-24T00:27:13.720Z,12.68
2018-06-24T00:28:13.685Z,12.71
2018-06-24T00:29:13.673Z,12.77
2018-06-24T00:30:13.651Z,12.72
2018-06-24T00:31:13.638Z,12.67
2018-06-24T00:32:13.636Z,12.68
2018-06-24T00:33:13.619Z,12.68
2018-06-24T00:34:13.581Z,12.64
2018-06-24T00:35:13.562Z,12.71
2018-06-24T00:36:13.542Z,12.60
2018-06-24T00:37:13.576Z,12.67
2018-06-24T00:38:13.508Z,12.62
2018-06-24T00:39:13.491Z,12.67
2018-06-24T00:40:13.472Z,12.68
2018-06-24T00:41:13.457Z,12.59
2018-06-24T00:42:13.450Z,12.64
2018-06-24T00:43:13.418Z,12.52
2018-06-24T00:44:13.405Z,12.56
2018-06-24T00:45:13.383Z,12.52
2018-06-24T00:46:13.369Z,12.49
2018-06-24T00:47:13.359Z,12.53
2018-06-24T00:48:13.329Z,12.54
2018-06-24T00:49:13.308Z,12.49
2018-06-24T00:50:13.294Z,12.53
2018-06-24T00:51:13.274Z,12.53
2018-06-24T00:52:13.272Z,12.50
2018-06-24T00:53:13.240Z,12.49
2018-06-24T00:54:13.221Z,12.53
2018-06-24T00:55:13.203Z,12.50
2018-06-24T00:56:13.184Z,12.49
2018-06-24T00:57:13.183Z,12.57
2018-06-24T00:58:13.150Z,12.56
2018-06-24T00:59:13.132Z,12.57
2018-06-24T01:00:13.117Z,12.54
2018-06-24T01:01:13.096Z,12.52
2018-06-24T01:02:13.090Z,12.50
2018-06-24T01:03:13.059Z,12.54
2018-06-24T01:04:13.076Z,12.52
2018-06-24T01:05:13.027Z,12.54
2018-06-24T01:06:13.009Z,12.47
2018-06-24T01:07:12.999Z,12.49
2018-06-24T01:08:12.970Z,12.56
2018-06-24T01:09:12.953Z,12.56
2018-06-24T01:10:12.936Z,12.59
2018-06-24T01:11:12.917Z,12.60
2018-06-24T01:12:12.922Z,12.60
2018-06-24T01:13:12.881Z,12.65
2018-06-24T01:14:12.866Z,12.60
2018-06-24T01:15:12.854Z,12.60
2018-06-24T01:16:12.827Z,12.64
2018-06-24T01:17:12.825Z,12.64
2018-06-24T01:18:12.793Z,12.60
2018-06-24T01:19:12.775Z,12.65
2018-06-24T01:20:12.764Z,12.68
2018-06-24T01:21:12.737Z,12.71
2018-06-24T01:22:12.728Z,12.62
2018-06-24T01:23:12.703Z,12.65
2018-06-24T01:24:12.684Z,12.68
2018-06-24T01:25:12.665Z,12.71
2018-06-24T01:26:12.647Z,12.68
2018-06-24T01:27:12.642Z,12.67
2018-06-24T01:28:12.612Z,12.59
2018-06-24T01:29:12.595Z,12.68
2018-06-24T01:30:12.582Z,12.64
2018-06-24T01:31:12.561Z,12.64
2018-06-24T01:32:12.560Z,12.68
2018-06-24T01:33:12.523Z,12.68
2018-06-24T01:34:12.504Z,12.68
2018-06-24T01:35:12.487Z,12.72
2018-06-24T01:36:12.470Z,12.70
2018-06-24T01:37:12.446Z,12.68
2018-06-24T01:38:12.488Z,12.68
2018-06-24T01:39:12.416Z,12.72
2018-06-24T01:40:12.399Z,12.71
2018-06-24T01:41:12.375Z,12.68
2018-06-24T01:42:12.373Z,12.70
2018-06-24T01:43:12.348Z,12.70
2018-06-24T01:44:12.338Z,12.68
2018-06-24T01:45:12.309Z,12.70
2018-06-24T01:46:12.299Z,12.70
2018-06-24T01:47:12.273Z,12.68
2018-06-24T01:48:12.257Z,12.70
2018-06-24T01:49:12.264Z,12.67
2018-06-24T01:50:12.225Z,12.62
2018-06-24T01:51:12.211Z,12.60
2018-06-24T01:52:12.183Z,12.60
2018-06-24T01:53:12.167Z,12.57
2018-06-24T01:54:12.151Z,12.56
2018-06-24T01:55:12.163Z,12.52
2018-06-24T01:56:12.111Z,12.53
2018-06-24T01:57:12.095Z,12.54
2018-06-24T01:58:12.087Z,12.56
2018-06-24T01:59:12.060Z,12.45
2018-06-24T02:00:12.039Z,12.52
2018-06-24T02:01:12.033Z,12.52
2018-06-24T02:02:12.009Z,12.50
2018-06-24T02:03:11.986Z,12.50
2018-06-24T02:04:11.974Z,12.47
2018-06-24T02:05:11.951Z,12.52
2018-06-24T02:06:11.950Z,12.46
2018-06-24T02:07:11.917Z,12.49
2018-06-24T02:08:11.899Z,12.38
2018-06-24T02:09:11.883Z,12.45
2018-06-24T02:10:11.861Z,12.45
2018-06-24T02:11:11.841Z,12.37
2018-06-24T02:12:11.852Z,12.41
2018-06-24T02:13:11.808Z,12.41
2018-06-24T02:14:11.793Z,12.37
2018-06-24T02:15:11.775Z,12.41
2018-06-24T02:16:11.762Z,12.39
2018-06-24T02:17:11.736Z,12.41
2018-06-24T02:18:11.740Z,12.42
2018-06-24T02:19:11.699Z,12.46
2018-06-24T02:20:11.682Z,12.52
2018-06-24T02:21:11.699Z,12.50
2018-06-24T02:22:11.645Z,12.41
2018-06-24T02:23:11.627Z,12.47
2018-06-24T02:24:11.625Z,12.42
2018-06-24T02:25:11.587Z,12.46
2018-06-24T02:26:11.577Z,12.46
2018-06-24T02:27:11.556Z,12.47
2018-06-24T02:28:11.540Z,12.46
2018-06-24T02:29:11.542Z,12.49
2018-06-24T02:30:11.504Z,12.52
2018-06-24T02:31:11.487Z,12.57
2018-06-24T02:32:11.472Z,12.57
2018-06-24T02:33:11.450Z,12.57
2018-06-24T02:34:11.429Z,12.52
2018-06-24T02:35:11.435Z,12.57
2018-06-24T02:36:11.395Z,12.49
2018-06-24T02:37:11.377Z,12.54
2018-06-24T02:38:11.360Z,12.56
2018-06-24T02:39:11.340Z,12.59
2018-06-24T02:40:11.329Z,12.60
2018-06-24T02:41:11.315Z,12.60
2018-06-24T02:42:11.296Z,12.59
2018-06-24T02:43:11.269Z,12.56
2018-06-24T02:44:11.251Z,12.59
2018-06-24T02:45:11.242Z,12.57
2018-06-24T02:46:11.238Z,12.57
2018-06-24T02:47:11.196Z,12.64
2018-06-24T02:48:11.183Z,12.59
2018-06-24T02:49:11.169Z,12.53
2018-06-24T02:50:11.144Z,12.59
2018-06-24T02:51:11.125Z,12.59
2018-06-24T02:52:11.129Z,12.60
2018-06-24T02:53:11.096Z,12.53
2018-06-24T02:54:11.075Z,12.62
2018-06-24T02:55:11.061Z,12.59
2018-06-24T02:56:11.037Z,12.59
2018-06-24T02:57:11.019Z,12.59
2018-06-24T02:58:11.020Z,12.60
2018-06-24T02:59:10.982Z,12.60
2018-06-24T03:00:10.965Z,12.57
2018-06-24T03:01:10.945Z,12.60
2018-06-24T03:02:10.925Z,12.57
2018-06-24T03:03:10.931Z,12.59
2018-06-24T03:04:10.897Z,12.56
2018-06-24T03:05:10.876Z,12.59
2018-06-24T03:06:10.860Z,12.56
2018-06-24T03:07:10.838Z,12.52
2018-06-24T03:08:10.822Z,12.54
2018-06-24T03:09:10.821Z,12.50
2018-06-24T08:09:28.234Z,18.85
2018-06-24T08:10:28.206Z,18.81
2018-06-24T08:11:28.188Z,19.02
2018-06-24T08:12:28.173Z,19.07
2018-06-24T08:13:28.156Z,18.90
2018-06-24T08:14:28.157Z,18.95
2018-06-24T08:15:28.124Z,18.91
2018-06-24T08:16:28.110Z,18.67
2018-06-24T08:17:28.094Z,18.81
2018-06-24T08:18:28.078Z,18.47
2018-06-24T08:19:28.063Z,18.05
2018-06-24T08:20:28.065Z,17.58
2018-06-24T08:21:28.034Z,17.77
2018-06-24T08:22:28.022Z,17.92
2018-06-24T08:23:28.008Z,17.92
2018-06-24T08:24:27.990Z,17.68
2018-06-24T08:25:27.975Z,17.75
2018-06-24T08:26:27.972Z,17.75
2018-06-24T08:27:27.948Z,18.12
2018-06-24T08:28:27.933Z,17.62
2018-06-24T08:29:27.921Z,17.78
2018-06-24T08:30:27.909Z,18.10
2018-06-24T08:31:27.901Z,18.44
2018-06-24T08:32:27.879Z,18.80
2018-06-24T08:33:27.861Z,18.95
2018-06-24T08:34:27.847Z,18.76
2018-06-24T08:35:27.834Z,18.81
2018-06-24T08:36:27.819Z,18.57
2018-06-24T08:37:27.835Z,18.80
2018-06-24T08:38:27.789Z,19.02
2018-06-24T08:39:27.779Z,19.14
2018-06-24T08:40:27.762Z,19.06
2018-06-24T08:41:27.748Z,19.14
2018-06-24T08:42:27.735Z,19.22
2018-06-24T08:43:27.731Z,19.28
2018-06-24T08:44:27.708Z,19.33
2018-06-24T08:45:27.693Z,19.51
2018-06-24T08:46:27.678Z,19.46
2018-06-24T08:47:27.668Z,18.99
2018-06-24T08:48:27.666Z,18.54
2018-06-24T08:49:27.639Z,18.52
2018-06-24T08:50:27.626Z,18.94
2018-06-24T08:51:27.612Z,18.95
2018-06-24T08:52:27.599Z,18.67
2018-06-24T08:53:27.585Z,18.78
2018-06-24T08:54:27.660Z,18.78
2018-06-24T08:55:27.560Z,18.78
2018-06-24T08:56:27.548Z,18.65
2018-06-24T08:57:27.533Z,18.62
2018-06-24T08:58:27.517Z,18.51
2018-06-24T08:59:27.509Z,18.18
2018-06-24T09:00:27.513Z,18.03
2018-06-24T09:01:27.477Z,18.44
2018-06-24T09:02:27.464Z,18.39
2018-06-24T09:03:27.460Z,18.32
2018-06-24T09:04:27.439Z,18.48
2018-06-24T09:05:27.424Z,18.32
2018-06-24T09:06:27.422Z,18.51
2018-06-24T09:07:27.397Z,18.58
2018-06-24T09:08:27.384Z,18.73
2018-06-24T09:09:27.370Z,18.75
2018-06-24T09:10:27.357Z,18.54
2018-06-24T09:11:27.375Z,18.72
2018-06-24T09:12:27.329Z,18.87
2018-06-24T09:13:27.315Z,18.65
2018-06-24T09:14:27.302Z,18.90
2018-06-24T09:15:27.296Z,19.16
2018-06-24T09:16:27.275Z,19.25
2018-06-24T09:17:27.293Z,19.14
2018-06-24T09:18:27.248Z,19.16
2018-06-24T09:19:27.235Z,19.07
2018-06-24T09:20:27.221Z,18.72
2018-06-24T09:21:27.213Z,18.78
2018-06-24T09:22:27.195Z,18.69
2018-06-24T09:23:27.193Z,18.44
2018-06-24T09:24:27.168Z,18.67
2018-06-24T09:25:27.151Z,18.81
2018-06-24T09:26:27.141Z,18.99
2018-06-24T09:27:27.132Z,18.37
2018-06-24T09:28:27.146Z,18.26
2018-06-24T09:29:27.100Z,18.42
2018-06-24T09:30:27.088Z,18.18
2018-06-24T09:31:27.075Z,18.57
2018-06-24T09:32:27.061Z,18.11
2018-06-24T09:33:27.048Z,18.10
2018-06-24T09:34:27.066Z,18.26
2018-06-24T09:35:27.019Z,18.27
2018-06-24T09:36:27.007Z,18.11
2018-06-24T09:37:26.992Z,18.26
2018-06-24T09:38:26.978Z,18.29
2018-06-24T09:39:26.966Z,18.58
2018-06-24T09:40:26.961Z,18.52
2018-06-24T09:41:26.939Z,18.30
2018-06-24T09:42:26.924Z,18.51
2018-06-24T09:43:26.914Z,18.69
2018-06-24T09:44:26.899Z,18.67
2018-06-24T09:45:26.898Z,18.58
2018-06-24T09:46:26.871Z,18.80
2018-06-24T09:47:26.863Z,18.72
2018-06-24T09:48:26.844Z,18.39
2018-06-24T09:49:26.829Z,18.42
2018-06-24T09:50:26.817Z,18.87
2018-06-24T09:51:26.821Z,18.90
2018-06-24T09:52:26.789Z,18.99
2018-06-24T09:53:26.777Z,18.98
2018-06-24T09:54:26.762Z,18.58
2018-06-24T09:55:26.751Z,18.36
2018-06-24T09:56:26.736Z,18.48
2018-06-24T09:57:26.736Z,18.91
2018-06-24T09:58:26.716Z,18.60
2018-06-24T09:59:26.695Z,19.02
2018-06-24T10:00:26.686Z,19.19
2018-06-24T10:01:26.672Z,19.23
2018-06-24T10:02:26.658Z,19.41
2018-06-24T10:03:26.665Z,19.32
2018-06-24T10:04:26.629Z,18.99
2018-06-24T10:05:26.614Z,19.14
2018-06-24T10:06:26.613Z,19.08
2018-06-24T10:07:26.587Z,19.37
2018-06-24T10:08:26.589Z,19.51
2018-06-24T10:09:26.560Z,19.18
2018-06-24T10:10:26.548Z,19.29
2018-06-24T10:11:26.535Z,19.54
2018-06-24T10:12:26.524Z,19.41
2018-06-24T10:13:26.508Z,19.36
2018-06-24T10:14:26.528Z,19.46
2018-06-24T10:15:26.486Z,19.65
2018-06-24T10:16:26.474Z,19.46
2018-06-24T10:17:26.500Z,19.81
2018-06-24T10:18:26.442Z,19.99
2018-06-24T10:19:26.431Z,19.63
2018-06-24T10:20:26.430Z,19.56
2018-06-24T10:21:26.405Z,19.48
2018-06-24T10:22:26.390Z,19.84
2018-06-24T10:23:26.379Z,19.78
2018-06-24T10:24:26.367Z,20.14
2018-06-24T10:25:26.386Z,19.91
2018-06-24T10:26:26.340Z,19.99
2018-06-24T10:27:26.330Z,20.14
2018-06-24T10:28:26.315Z,20.87
2018-06-24T10:29:26.357Z,21.04
2018-06-24T10:30:26.289Z,20.88
2018-06-24T10:31:26.312Z,20.47
2018-06-24T10:32:26.265Z,20.47
2018-06-24T10:33:26.255Z,20.57
2018-06-24T10:34:26.722Z,20.74
2018-06-24T10:35:26.227Z,20.74
2018-06-24T10:36:26.215Z,20.48
2018-06-24T10:37:26.212Z,20.43
2018-06-24T10:38:26.192Z,20.47
2018-06-24T10:39:26.179Z,20.35
2018-06-24T10:40:26.166Z,20.20
2018-06-24T10:41:26.154Z,20.41
2018-06-24T10:42:26.154Z,20.36
2018-06-24T10:43:26.130Z,20.16
2018-06-24T10:44:26.119Z,20.26
2018-06-24T10:45:26.104Z,20.76
2018-06-24T10:46:26.097Z,20.92
2018-06-24T10:47:26.081Z,20.82
2018-06-24T10:48:26.100Z,20.38
2018-06-24T10:49:26.056Z,20.48
2018-06-24T10:50:26.045Z,20.70
2018-06-24T10:51:26.034Z,20.87
2018-06-24T10:52:26.023Z,20.41
2018-06-24T10:53:26.010Z,20.79
2018-06-24T10:54:26.005Z,21.10
2018-06-24T10:55:25.985Z,20.79
2018-06-24T10:56:25.972Z,20.72
2018-06-24T10:57:25.966Z,21.25
2018-06-24T10:58:25.949Z,21.10
2018-06-24T10:59:25.979Z,20.55
2018-06-24T11:00:25.933Z,20.03
2018-06-24T11:01:25.911Z,19.80
2018-06-24T11:02:25.900Z,19.51
2018-06-24T11:03:25.888Z,19.55
2018-06-24T11:04:25.877Z,19.33
2018-06-24T11:05:25.878Z,19.74
2018-06-24T11:06:25.851Z,19.98
2018-06-24T11:07:25.840Z,20.43
2018-06-24T11:08:25.831Z,20.74
2018-06-24T11:09:25.814Z,20.88
2018-06-24T11:10:25.803Z,21.22
2018-06-24T11:11:25.805Z,21.77
2018-06-24T11:12:25.779Z,21.96
2018-06-24T11:13:25.771Z,21.42
2018-06-24T11:14:25.755Z,20.61
2018-06-24T11:15:25.742Z,20.77
2018-06-24T11:16:25.759Z,20.74
2018-06-24T11:17:25.726Z,20.32
2018-06-24T11:18:25.707Z,20.23
2018-06-24T11:19:25.694Z,20.31
2018-06-24T11:20:25.681Z,20.80
2018-06-24T11:21:25.680Z,21.04
2018-06-24T11:22:25.671Z,21.43
2018-06-24T11:23:25.644Z,21.54
2018-06-24T11:24:25.633Z,21.29
2018-06-24T11:25:25.622Z,21.24
2018-06-24T11:26:25.608Z,21.80
2018-06-24T11:27:25.596Z,21.71
2018-06-24T11:28:25.616Z,21.74
2018-06-24T11:29:25.570Z,21.42
2018-06-24T11:30:25.561Z,21.99
2018-06-24T11:31:25.548Z,21.83
2018-06-24T11:32:25.536Z,21.88
2018-06-24T11:33:25.526Z,21.88
2018-06-24T11:34:25.523Z,21.31
2018-06-24T11:35:25.502Z,20.92
2018-06-24T11:36:25.490Z,20.47
2018-06-24T11:37:25.480Z,20.38
2018-06-24T11:38:25.468Z,20.42
2018-06-24T11:39:25.469Z,20.06
2018-06-24T11:40:25.443Z,20.21
2018-06-24T11:41:25.432Z,21.01
2018-06-24T11:42:25.420Z,21.90
2018-06-24T11:43:25.407Z,22.07
2018-06-24T11:44:25.394Z,22.68
2018-06-24T11:45:25.397Z,22.28
2018-06-24T11:46:25.373Z,22.30
2018-06-24T11:47:25.360Z,21.56
2018-06-24T11:48:25.355Z,20.95
2018-06-24T11:49:25.335Z,20.58
2018-06-24T11:50:25.325Z,20.16
2018-06-24T11:51:25.325Z,19.86
2018-06-24T11:52:25.304Z,19.78
2018-06-24T11:53:25.289Z,20.02
2018-06-24T11:54:25.277Z,20.17
2018-06-24T11:55:25.267Z,20.20
2018-06-24T11:56:25.267Z,20.13
2018-06-24T11:57:25.239Z,20.05
2018-06-24T11:58:25.230Z,19.98
2018-06-24T11:59:25.220Z,20.14
2018-06-24T12:00:25.206Z,20.21
2018-06-24T12:01:25.192Z,21.22
2018-06-24T12:02:25.223Z,21.43
2018-06-24T12:03:25.171Z,21.24
2018-06-24T12:04:25.158Z,21.24
2018-06-24T12:05:25.145Z,20.48
2018-06-24T12:06:25.133Z,20.23
2018-06-24T12:07:25.121Z,20.73
2018-06-24T12:08:25.125Z,20.73
2018-06-24T12:09:25.098Z,20.95
2018-06-24T12:10:25.088Z,21.03
2018-06-24T12:11:25.073Z,20.92
2018-06-24T12:12:25.123Z,20.39
2018-06-24T12:13:25.050Z,20.21
2018-06-24T12:14:25.046Z,20.41
2018-06-24T12:15:25.028Z,20.91
2018-06-24T12:16:25.017Z,21.01
2018-06-24T12:17:27.726Z,21.27
2018-06-24T12:18:24.991Z,21.50
2018-06-24T12:19:24.992Z,21.74
2018-06-24T12:20:24.966Z,21.53
2018-06-24T12:21:24.953Z,21.37
2018-06-24T12:22:24.942Z,21.74
2018-06-24T12:23:24.929Z,22.58
2018-06-24T12:24:24.917Z,21.68
2018-06-24T12:25:24.919Z,22.24
2018-06-24T12:26:24.893Z,22.92
2018-06-24T12:27:24.881Z,23.04
2018-06-24T12:28:24.871Z,23.07
2018-06-24T12:29:24.862Z,23.05
2018-06-24T12:30:24.846Z,22.28
2018-06-24T12:31:24.845Z,22.12
2018-06-24T12:32:24.824Z,22.15
2018-06-24T12:33:24.813Z,21.59
2018-06-24T12:34:24.799Z,20.89
2018-06-24T12:35:24.788Z,20.61
2018-06-24T12:36:24.792Z,21.06
2018-06-24T12:37:24.818Z,21.29
2018-06-24T12:38:24.753Z,22.18
2018-06-24T12:39:24.742Z,21.61
2018-06-24T12:40:24.736Z,21.38
2018-06-24T12:41:24.717Z,21.67
2018-06-24T12:42:24.722Z,22.33
2018-06-24T12:43:24.705Z,22.67
2018-06-24T12:44:24.686Z,22.10
2018-06-24T12:45:24.672Z,22.30
2018-06-24T12:46:24.661Z,22.15
2018-06-24T12:47:24.652Z,22.24
2018-06-24T12:48:24.650Z,21.67
2018-06-24T12:49:24.647Z,22.03
2018-06-24T12:50:24.625Z,21.99
2018-06-24T12:51:24.605Z,21.01
2018-06-24T12:52:24.594Z,20.55
2018-06-24T12:53:24.597Z,20.88
2018-06-24T12:54:24.583Z,21.19
2018-06-24T12:55:24.559Z,21.56
2018-06-24T12:56:24.549Z,21.69
2018-06-24T12:57:24.537Z,21.84
2018-06-24T12:58:24.647Z,21.53
2018-06-24T12:59:24.876Z,21.31
2018-06-24T13:00:25.135Z,21.10
2018-06-24T13:01:24.489Z,21.56
2018-06-24T13:02:24.480Z,21.38
2018-06-24T13:03:24.469Z,20.99
2018-06-24T13:04:24.462Z,21.07
2018-06-24T13:05:24.456Z,21.28
2018-06-24T13:06:24.436Z,21.58
2018-06-24T13:07:24.425Z,21.58
2018-06-24T13:08:24.413Z,22.06
2018-06-24T13:09:24.402Z,22.05
2018-06-24T13:10:24.388Z,21.96
2018-06-24T13:11:24.393Z,21.61
2018-06-24T13:12:24.928Z,21.69
2018-06-24T13:13:24.354Z,21.43
2018-06-24T13:14:24.345Z,21.25
2018-06-24T13:15:24.333Z,21.37
2018-06-24T13:16:24.321Z,21.27
2018-06-24T13:17:24.328Z,21.22
2018-06-24T13:18:24.297Z,21.19
2018-06-24T13:19:24.289Z,21.40
2018-06-24T13:20:24.276Z,21.29
2018-06-24T13:21:24.266Z,21.03
2018-06-24T13:22:24.252Z,20.59
2018-06-24T13:23:24.253Z,21.01
2018-06-24T13:24:24.234Z,20.52
2018-06-24T13:25:24.221Z,20.47
2018-06-24T13:26:24.213Z,20.28
2018-06-24T13:27:24.195Z,20.47
2018-06-24T13:28:24.202Z,20.47
2018-06-24T13:29:24.175Z,20.94
2018-06-24T13:30:24.161Z,20.88
2018-06-24T13:31:24.152Z,20.69
2018-06-24T13:32:24.138Z,20.98
2018-06-24T13:33:24.126Z,21.19
2018-06-24T13:34:24.130Z,21.24
2018-06-24T13:35:24.102Z,21.13
2018-06-24T13:36:24.093Z,21.21
2018-06-24T13:37:24.078Z,21.56
2018-06-24T13:38:24.065Z,20.99
2018-06-24T13:39:24.079Z,21.53
2018-06-24T13:40:24.059Z,21.58
2018-06-24T13:41:24.032Z,21.42
2018-06-24T13:42:24.094Z,20.99
2018-06-24T13:43:24.008Z,21.22
2018-06-24T13:44:23.997Z,21.22
2018-06-24T13:45:23.997Z,20.73
2018-06-24T13:46:23.975Z,21.01
2018-06-24T13:47:23.963Z,21.04
2018-06-24T13:48:23.951Z,21.21
2018-06-24T13:49:23.942Z,21.24
2018-06-24T13:50:23.944Z,21.22
2018-06-24T13:51:23.960Z,20.67
2018-06-24T13:52:23.903Z,21.04
2018-06-24T13:53:23.892Z,21.03
2018-06-24T13:54:23.884Z,21.03
2018-06-24T13:55:23.870Z,20.82
2018-06-24T13:56:23.868Z,20.92
2018-06-24T13:57:23.846Z,20.42
2018-06-24T13:58:23.834Z,20.72
2018-06-24T13:59:23.824Z,20.73
2018-06-24T14:00:23.811Z,20.94
2018-06-24T14:01:23.812Z,20.76
2018-06-24T14:02:23.786Z,20.51
2018-06-24T14:03:23.774Z,20.55
2018-06-24T14:04:23.762Z,20.58
2018-06-24T14:05:23.751Z,20.98
2018-06-24T14:06:23.739Z,21.24
2018-06-24T14:07:23.740Z,21.42
2018-06-24T14:08:23.715Z,21.53
2018-06-24T14:09:23.701Z,21.19
2018-06-24T14:10:23.689Z,21.61
2018-06-24T14:11:23.678Z,21.27
2018-06-24T14:12:23.667Z,21.62
2018-06-24T14:13:23.665Z,21.42
2018-06-24T14:14:23.643Z,21.61
2018-06-24T14:15:23.631Z,21.77
2018-06-24T14:16:23.620Z,21.75
2018-06-24T14:17:23.609Z,21.25
2018-06-24T14:18:23.615Z,21.42
2018-06-24T14:19:23.588Z,21.09
2018-06-24T14:20:23.575Z,21.24
2018-06-24T14:21:23.562Z,20.99
2018-06-24T14:22:23.556Z,21.34
2018-06-24T14:23:23.591Z,21.69
2018-06-24T14:24:23.538Z,21.28
2018-06-24T14:25:23.514Z,21.21
2018-06-24T14:26:23.510Z,21.65
2018-06-24T14:27:23.496Z,21.75
2018-06-24T14:28:23.482Z,21.43
2018-06-24T14:29:23.497Z,22.17
2018-06-24T14:30:23.459Z,22.49
2018-06-24T14:31:23.448Z,22.35
2018-06-24T14:32:23.440Z,22.42
2018-06-24T14:33:23.426Z,22.18
2018-06-24T14:34:23.414Z,22.00
2018-06-24T14:35:23.417Z,22.05
2018-06-24T14:36:23.396Z,22.43
2018-06-24T14:37:23.382Z,22.30
2018-06-24T14:38:23.370Z,22.00
2018-06-24T14:39:23.360Z,22.31
2018-06-24T14:40:23.384Z,22.76
2018-06-24T14:41:23.338Z,23.07
2018-06-24T14:42:23.341Z,23.32
2018-06-24T14:43:23.317Z,23.48
2018-06-24T14:44:23.307Z,22.88
2018-06-24T14:45:23.296Z,22.83
2018-06-24T14:46:23.300Z,23.07
2018-06-24T14:47:23.281Z,22.51
2018-06-24T14:48:23.268Z,21.91
2018-06-24T14:49:23.257Z,22.00
2018-06-24T14:50:23.246Z,21.92
2018-06-24T14:51:23.271Z,22.00
2018-06-24T14:52:23.228Z,22.30
2018-06-24T14:53:23.217Z,22.09
2018-06-24T14:54:23.207Z,22.25
2018-06-24T14:55:23.196Z,21.83
2018-06-24T14:56:23.186Z,21.47
2018-06-24T14:57:23.203Z,20.95
2018-06-24T14:58:23.166Z,21.29
2018-06-24T14:59:23.155Z,21.40
2018-06-24T15:00:23.145Z,21.46
2018-06-24T15:01:23.149Z,20.91
2018-06-24T15:02:23.165Z,21.19
2018-06-24T15:03:23.118Z,20.89
2018-06-24T15:04:23.110Z,20.98
2018-06-24T15:05:23.092Z,20.76
2018-06-24T15:06:23.079Z,20.98
2018-06-24T15:07:23.071Z,21.34
2018-06-24T15:08:23.077Z,21.22
2018-06-24T15:09:23.056Z,21.43
2018-06-24T15:10:23.039Z,21.40
2018-06-24T15:11:23.071Z,21.04
2018-06-24T15:12:23.016Z,21.12
2018-06-24T15:13:23.022Z,20.70
2018-06-24T15:14:22.992Z,20.69
2018-06-24T15:15:22.982Z,20.57
2018-06-24T15:16:22.973Z,20.54
2018-06-24T15:17:22.958Z,20.73
2018-06-24T15:18:22.947Z,20.59
2018-06-24T15:19:22.950Z,20.62
2018-06-24T15:20:22.925Z,20.64
2018-06-24T15:21:22.913Z,20.03
2018-06-24T15:22:22.901Z,19.96
2018-06-24T15:23:22.890Z,19.92
2018-06-24T15:24:22.894Z,20.01
2018-06-24T15:25:22.868Z,19.95
2018-06-24T15:26:22.855Z,20.21
2018-06-24T15:27:22.842Z,20.26
2018-06-24T15:28:22.830Z,20.48
2018-06-24T15:29:22.815Z,19.69
2018-06-24T15:30:22.822Z,19.66
2018-06-24T15:31:22.792Z,19.66
2018-06-24T15:32:22.781Z,19.66
2018-06-24T15:33:22.767Z,19.58
2018-06-24T15:34:22.754Z,19.58
2018-06-24T15:35:22.745Z,19.58
2018-06-24T15:36:22.742Z,19.58
2018-06-24T15:37:22.717Z,19.56
2018-06-24T15:38:22.704Z,19.43
2018-06-24T15:39:22.690Z,19.56
2018-06-24T15:40:22.679Z,19.74
2018-06-24T15:41:22.683Z,19.74
2018-06-24T15:42:22.652Z,19.62
2018-06-24T15:43:22.640Z,19.68
2018-06-24T15:44:22.626Z,19.80
2018-06-24T15:45:22.613Z,19.81
2018-06-24T15:46:22.605Z,19.92
2018-06-24T15:47:22.598Z,19.48
2018-06-24T15:48:22.574Z,19.66
2018-06-24T15:49:22.560Z,19.46
2018-06-24T15:50:22.546Z,19.40
2018-06-24T15:51:22.551Z,19.40
2018-06-24T15:52:22.542Z,19.54
2018-06-24T15:53:22.522Z,19.50
2018-06-24T15:54:22.495Z,19.46
2018-06-24T15:55:22.489Z,19.51
2018-06-24T15:56:22.466Z,19.44
2018-06-24T15:57:22.453Z,19.48
2018-06-24T15:58:22.497Z,19.43
2018-06-24T15:59:22.426Z,19.50
2018-06-24T16:00:22.414Z,19.58
2018-06-24T16:01:22.400Z,19.66
2018-06-24T16:02:22.386Z,19.65
2018-06-24T16:03:22.392Z,19.83
2018-06-24T16:04:22.360Z,19.76
2018-06-24T16:05:22.348Z,19.80
2018-06-24T16:06:22.333Z,19.44
2018-06-24T16:07:22.319Z,19.47
2018-06-24T16:08:22.305Z,19.51
2018-06-24T16:09:22.304Z,19.59
2018-06-24T16:10:22.278Z,19.68
2018-06-24T16:11:22.264Z,19.54
2018-06-24T16:12:22.250Z,19.14
2018-06-24T16:13:22.280Z,19.08
2018-06-24T16:14:22.237Z,19.26
2018-06-24T16:15:22.209Z,19.10
2018-06-24T16:16:22.199Z,19.36
2018-06-24T16:17:22.180Z,19.44
2018-06-24T16:18:22.168Z,19.28
2018-06-24T16:19:22.171Z,19.21
2018-06-24T16:20:22.177Z,19.14
2018-06-24T16:21:22.128Z,19.21
2018-06-24T16:22:22.112Z,18.99
2018-06-24T16:23:22.100Z,19.04
2018-06-24T16:24:22.085Z,19.02
2018-06-24T16:25:22.082Z,18.95
2018-06-24T16:26:22.058Z,18.87
2018-06-24T16:27:22.044Z,18.87
2018-06-24T16:28:22.030Z,18.90
2018-06-24T16:29:22.015Z,18.67
2018-06-24T16:30:22.017Z,18.70
2018-06-24T16:31:21.987Z,18.78
2018-06-24T16:32:21.976Z,18.70
2018-06-24T16:33:21.992Z,18.91
2018-06-24T16:34:21.945Z,18.90
2018-06-24T16:35:21.930Z,18.88
2018-06-24T16:36:21.926Z,18.87
2018-06-24T16:37:21.904Z,18.84
2018-06-24T16:38:21.934Z,18.69
2018-06-24T16:39:21.875Z,18.69
2018-06-24T16:40:21.859Z,18.66
2018-06-24T16:41:21.872Z,18.70
2018-06-24T16:42:21.886Z,18.70
2018-06-24T16:43:21.853Z,18.67
2018-06-24T16:44:21.804Z,18.66
2018-06-24T16:45:21.788Z,18.72
2018-06-24T16:46:21.778Z,18.76
2018-06-24T16:47:21.771Z,18.80
2018-06-24T16:48:21.745Z,18.75
2018-06-24T16:49:21.729Z,18.80
2018-06-24T16:50:21.715Z,18.78
2018-06-24T16:51:21.702Z,18.69
2018-06-24T16:52:21.704Z,18.70
2018-06-24T16:53:21.681Z,18.72
2018-06-24T16:54:21.658Z,18.69
2018-06-24T16:55:21.643Z,18.73
2018-06-24T16:56:21.633Z,18.87
2018-06-24T16:57:21.613Z,18.90
2018-06-24T16:58:21.621Z,18.91
2018-06-24T16:59:21.584Z,18.75
2018-06-24T17:00:21.572Z,18.85
2018-06-24T17:01:21.555Z,18.91
2018-06-24T17:02:21.541Z,18.99
2018-06-24T17:03:21.531Z,19.08
2018-06-24T17:04:21.524Z,19.10
2018-06-24T17:05:21.497Z,19.08
2018-06-24T17:06:21.482Z,19.02
2018-06-24T17:07:21.474Z,18.94
2018-06-24T17:08:21.458Z,18.99
2018-06-24T17:09:21.463Z,19.16
2018-06-24T17:10:21.426Z,19.18
2018-06-24T17:11:21.415Z,19.02
2018-06-24T17:12:21.398Z,18.91
2018-06-24T17:13:21.390Z,18.90
2018-06-24T17:14:21.369Z,18.88
2018-06-24T17:15:21.364Z,18.91
2018-06-24T17:16:21.340Z,18.90
2018-06-24T17:17:21.323Z,18.95
2018-06-24T17:18:21.311Z,18.80
2018-06-24T17:19:21.295Z,18.95
2018-06-24T17:20:21.303Z,18.95
2018-06-24T17:21:21.266Z,18.84
2018-06-24T17:22:21.254Z,18.92
2018-06-24T17:23:21.239Z,18.91
2018-06-24T17:24:21.261Z,18.92
2018-06-24T17:25:21.209Z,18.91
2018-06-24T17:26:21.207Z,18.94
2018-06-24T17:27:21.181Z,18.66
2018-06-24T17:28:21.168Z,18.66
2018-06-24T17:29:21.151Z,18.48
2018-06-24T17:30:21.139Z,18.70
2018-06-24T17:31:21.147Z,18.69
2018-06-24T17:32:21.109Z,18.66
2018-06-24T17:33:21.095Z,18.81
2018-06-24T17:34:21.083Z,18.66
2018-06-24T17:35:21.066Z,18.78
2018-06-24T17:36:21.052Z,18.84
2018-06-24T17:37:21.047Z,18.80
2018-06-24T17:38:21.020Z,18.81
2018-06-24T17:39:21.010Z,18.75
2018-06-24T17:40:20.996Z,18.76
2018-06-24T17:41:20.978Z,18.81
2018-06-24T17:42:20.974Z,18.57
2018-06-24T17:43:20.949Z,18.66
2018-06-24T17:44:20.932Z,18.75
2018-06-24T17:45:20.921Z,18.69
2018-06-24T17:46:20.907Z,18.73
2018-06-24T17:47:20.921Z,18.85
2018-06-24T17:48:20.882Z,18.76
2018-06-24T17:49:20.861Z,18.76
2018-06-24T17:50:20.859Z,18.60
2018-06-24T17:51:20.835Z,18.58